Terminal Aerodrome Forecast
Issued by NWS

Home | Current Version | Previous Version | Text Only | Print | Product List | Glossary On
Versions: 1 2 3 4 5 6 7 8 9 10 11 12 13 14 15 16 17
776
FTUS43 KILX 271040 AAA
TAFCMI
TAF AMD
KCMI 271040Z 2711/2806 09006KT 3SM BR SCT040
      TEMPO 2711/2714 1SM BR SCT006
     FM271600 11010KT 4SM -SHRA BR BKN006 OVC012
     FM272300 11010KT 3SM -SHRA BR VCTS BKN006CB OVC012
     FM280300 36008KT 5SM BR VCSH OVC015=

USA.gov is the U.S. government's official web portal to all federal, state and local government web resources and services.